OOCL Europe — VRBX7 — position and weather

sailwx.info

Track history (hours):
 
Tides and Currents Weather Stations Pressure Air Temp Water Temp Dewpoint Dewpoint Depression Visibility Wind Speed Wind Dir Waves Ship Positions

OOCL Europe

Last reported at 2018-Aug-14 19:00 UTC. Time now 2018-Aug-14 19:28 UTC.
Position N 40°41' W 074°09'.

Length 323 m; draft 13.2 m.

Type: Cargo ship. MMSI: 477214700.

Date/timePositionNaut miles runAvg speedWind from/ knotsBaromVisibWave heightAir tempDewpointWater temp
2018-Aug-14 19:00N 40°41' W 074°09'0 0.0
2018-Aug-14 18:30N 40°41' W 074°09'0 0.0
2018-Aug-14 18:00N 40°41' W 074°09'0 0.0
2018-Aug-14 17:30N 40°41' W 074°09'0 0.0
2018-Aug-14 17:00N 40°41' W 074°09'0 0.0
2018-Aug-14 16:30N 40°41' W 074°09'0 0.0
2018-Aug-14 16:00N 40°41' W 074°09'0 0.0
2018-Aug-14 15:30N 40°41' W 074°09'0 0.0
2018-Aug-14 15:00N 40°41' W 074°09'0 0.0
2018-Aug-14 14:30N 40°41' W 074°09'0 0.0
2018-Aug-14 14:00N 40°41' W 074°09'0 0.0
2018-Aug-14 13:30N 40°41' W 074°09'0 0.0
2018-Aug-14 13:00N 40°41' W 074°09'0 0.0
2018-Aug-14 12:30N 40°41' W 074°09'0 0.0
2018-Aug-14 12:00N 40°41' W 074°09'0 0.0
2018-Aug-14 11:27N 40°41' W 074°09'0 0.0
2018-Aug-14 10:57N 40°41' W 074°09'0 0.0
2018-Aug-14 10:30N 40°41' W 074°09'0 0.0
2018-Aug-14 10:00N 40°41' W 074°09'0 0.0
2018-Aug-14 09:30N 40°41' W 074°09'0 0.0
2018-Aug-14 09:00N 40°41' W 074°09'0 0.0
2018-Aug-14 08:30N 40°41' W 074°09'0 0.0
2018-Aug-14 08:00N 40°41' W 074°09'0 0.0
2018-Aug-14 07:30N 40°41' W 074°09'0 0.0
2018-Aug-14 07:00N 40°41' W 074°09'0 0.0
2018-Aug-14 06:30N 40°41' W 074°09'0 0.0
2018-Aug-14 06:00N 40°41' W 074°09'0 0.0
2018-Aug-14 05:30N 40°41' W 074°09'0 0.0
2018-Aug-14 05:00N 40°41' W 074°09'0 0.0
2018-Aug-14 04:27N 40°41' W 074°09'0 0.0
2018-Aug-14 04:00N 40°41' W 074°09'0 0.0
2018-Aug-14 03:30N 40°41' W 074°09'0 0.0
2018-Aug-14 03:00N 40°41' W 074°09'0 0.0
2018-Aug-14 02:30N 40°41' W 074°09'0 0.0
2018-Aug-14 02:00N 40°41' W 074°09'0 0.0
2018-Aug-14 01:30N 40°41' W 074°09'0 0.0
2018-Aug-14 01:00N 40°41' W 074°09'0 0.0
2018-Aug-14 00:30N 40°41' W 074°09'0 0.0
2018-Aug-14 00:00N 40°41' W 074°09'0 0.0
2018-Aug-13 23:27N 40°41' W 074°09'0 0.1
2018-Aug-13 23:00N 40°41' W 074°09'0 0.0
2018-Aug-13 22:30N 40°41' W 074°09'0 0.0
2018-Aug-13 22:00N 40°41' W 074°09'0 0.0
2018-Aug-13 21:30N 40°41' W 074°09'0 0.0
2018-Aug-13 21:00N 40°41' W 074°09'0 0.0
2018-Aug-13 20:30N 40°41' W 074°09'0 0.0
2018-Aug-13 19:54N 40°41' W 074°09'0 0.0
2018-Aug-13 19:27N 40°41' W 074°09'0 0.0
2018-Aug-13 19:00N 40°41' W 074°09'0 0.0
2018-Aug-13 18:30N 40°41' W 074°09'0 0.0
2018-Aug-13 18:00N 40°41' W 074°09'0 0.0
2018-Aug-13 17:30N 40°41' W 074°09'0 0.0
2018-Aug-13 17:00N 40°41' W 074°09'0 0.0
2018-Aug-13 16:30N 40°41' W 074°09'0 0.0
2018-Aug-13 15:57N 40°41' W 074°09'0 0.0
2018-Aug-13 15:30N 40°41' W 074°09'0 0.0
2018-Aug-13 15:00N 40°41' W 074°09'0 0.0
2018-Aug-13 14:30N 40°41' W 074°09'0 0.0
2018-Aug-13 14:00N 40°41' W 074°09'0 0.0
2018-Aug-13 13:30N 40°41' W 074°09'0 0.0
2018-Aug-13 13:00N 40°41' W 074°09'0 0.0
2018-Aug-13 12:30N 40°41' W 074°09'0 0.0
2018-Aug-13 12:00N 40°41' W 074°09'0 0.0
2018-Aug-13 11:30N 40°41' W 074°09'0 0.2
2018-Aug-13 11:00N 40°41' W 074°08'1 2.1
2018-Aug-13 10:30N 40°40' W 074°09'2 3.2
2018-Aug-13 10:00N 40°39' W 074°07'3 5.8
2018-Aug-13 09:30N 40°38' W 074°03'4 7.3
2018-Aug-13 09:00N 40°34' W 074°02'5 9.0
2018-Aug-13 08:30N 40°31' W 073°58'5 9.0
2018-Aug-13 08:00N 40°29' W 073°53'39 9.9
2018-Aug-13 04:05N 40°07' W 073°11'612.7
2018-Aug-13 03:38N 40°07' W 073°03'2547699.7
2018-Aug-13 00:00N 40°00' W 017°36'2321193.4 090 / 431016.410.8 26.023.8
2018-Aug-12 12:00N 40°00' W 068°06'19316.1 090 / 231020.010.8 24.022.5
2018-Aug-12 00:00N 40°00' W 063°54'22118.4 040 / 251017.410.8 26.018.215.0
2018-Aug-11 12:00N 40°18' W 059°06'44918.7 090 / 371016.510.8 24.021.823.5
2018-Aug-10 12:00N 43°48' W 050°12'12020.0 080 / 271021.5 0.1 20.018.418.2
2018-Aug-10 06:00N 44°42' W 047°42'12020.0 040 / 231022.6 5.4 15.013.2
2018-Aug-10 00:00N 45°30' W 045°06'11919.8 040 / 151017.710.8 17.313.819.0
2018-Aug-09 18:00N 46°18' W 042°30'10517.5 140 / 41008.4 5.4 23.518.815.0
2018-Aug-09 12:00N 46°54' W 040°06'   220 / 231013.5 0.3 22.018.918.0
2018-Aug-06 17:21N 49°49' W 008°47'1219.2
2018-Aug-06 16:44N 49°49' W 008°29'619.4
2018-Aug-06 16:26N 49°48' W 008°20'1319.5
2018-Aug-06 15:45N 49°47' W 007°59'1219.4
2018-Aug-06 15:08N 49°46' W 007°41'319.2
2018-Aug-06 14:58N 49°46' W 007°36'1219.2
2018-Aug-06 14:19N 49°45' W 007°17'1019.1
2018-Aug-06 13:49N 49°44' W 007°02'719.2
2018-Aug-06 13:27N 49°43' W 006°51'819.3
2018-Aug-06 13:00N 49°43' W 006°38'918.4
2018-Aug-06 12:30N 49°43' W 006°23'1118.6
2018-Aug-06 11:54N 49°44' W 006°06'1019.0
2018-Aug-06 11:23N 49°45' W 005°51'1218.8
2018-Aug-06 10:45N 49°46' W 005°32'1118.4
2018-Aug-06 10:09N 49°48' W 005°16'714.9
2018-Aug-06 09:42N 49°49' W 005°05'314.6
2018-Aug-06 09:29N 49°49' W 005°00'714.7
2018-Aug-06 08:58N 49°50' W 004°49'714.8
2018-Aug-06 08:30N 49°51' W 004°38'714.9
2018-Aug-06 08:00N 49°52' W 004°27'815.1
2018-Aug-06 07:31N 49°53' W 004°15'815.2
2018-Aug-06 07:01N 49°54' W 004°04'815.3
2018-Aug-06 06:31N 49°55' W 003°52'815.4
2018-Aug-06 06:01N 49°56' W 003°40'815.2
2018-Aug-06 05:30N 49°57' W 003°28'714.9
2018-Aug-06 05:01N 49°58' W 003°17'714.6
2018-Aug-06 04:30N 49°59' W 003°06'714.2
2018-Aug-06 04:01N 49°59' W 002°55'713.9
2018-Aug-06 03:29N 50°01' W 002°44'613.4
2018-Aug-06 03:00N 50°03' W 002°34'713.0
2018-Aug-06 02:30N 50°05' W 002°24'712.7
2018-Aug-06 01:59N 50°05' W 002°14'612.5
2018-Aug-06 01:30N 50°05' W 002°05'612.4
2018-Aug-06 01:00N 50°06' W 001°55'612.3
2018-Aug-06 00:30N 50°05' W 001°46'713.4
2018-Aug-06 00:00N 50°01' W 001°37'713.8
2018-Aug-05 23:30N 49°58' W 001°27'814.1
2018-Aug-05 22:57N 49°54' W 001°17'1015.0
2018-Aug-05 22:19N 49°50' W 001°04'515.4
2018-Aug-05 22:01N 49°48' W 000°57'815.4
2018-Aug-05 21:30N 49°44' W 000°46'815.7
2018-Aug-05 21:01N 49°40' W 000°37'815.9
2018-Aug-05 20:31N 49°37' W 000°25'815.8
2018-Aug-05 20:01N 49°33' W 000°14'714.9
2018-Aug-05 19:30N 49°31' W 000°03'713.8
2018-Aug-05 19:00N 49°29' E 000°07'2 4.2
2018-Aug-05 18:30N 49°29' E 000°10'0 0.0
2018-Aug-05 17:59N 49°29' E 000°10'0 0.0
2018-Aug-05 17:29N 49°29' E 000°10'0 0.0
2018-Aug-05 16:59N 49°29' E 000°10'0 0.0
2018-Aug-05 16:29N 49°29' E 000°10'0 0.0
2018-Aug-05 15:59N 49°29' E 000°10'0 0.0
2018-Aug-05 15:29N 49°29' E 000°10'0 0.0
2018-Aug-05 14:59N 49°29' E 000°10'0 0.0
2018-Aug-05 14:29N 49°29' E 000°10'0 0.0
2018-Aug-05 13:29N 49°29' E 000°10'0 0.0
2018-Aug-05 12:59N 49°29' E 000°10'0 0.0
2018-Aug-05 12:29N 49°29' E 000°10'0 0.0
2018-Aug-05 11:59N 49°29' E 000°10'0 0.0
2018-Aug-05 11:29N 49°29' E 000°10'0 0.0
2018-Aug-05 10:59N 49°29' E 000°10'0 0.0
2018-Aug-05 10:29N 49°29' E 000°10'0 0.0
2018-Aug-05 09:59N 49°29' E 000°10'0 0.0
2018-Aug-05 09:29N 49°29' E 000°10'0 0.0
2018-Aug-05 08:59N 49°29' E 000°10'0 0.0
2018-Aug-05 08:29N 49°29' E 000°10'0 0.0
2018-Aug-05 07:59N 49°29' E 000°10'0 0.0
2018-Aug-05 07:29N 49°29' E 000°10'0 0.0
2018-Aug-05 06:59N 49°29' E 000°10'0 0.0
2018-Aug-05 06:29N 49°29' E 000°10'0 0.0
2018-Aug-05 05:59N 49°29' E 000°10'0 0.0
2018-Aug-05 05:29N 49°29' E 000°10'0 0.0
2018-Aug-05 04:59N 49°29' E 000°10'0 0.0
2018-Aug-05 04:29N 49°29' E 000°10'0 0.5
2018-Aug-05 04:00N 49°28' E 000°10'2 3.5
2018-Aug-05 03:30N 49°29' E 000°07'510.4
2018-Aug-05 03:00N 49°30' W 000°01'510.0
2018-Aug-05 02:30N 49°32' W 000°08'3 5.6
2018-Aug-05 02:00N 49°34' W 000°11'2 4.6
2018-Aug-05 01:30N 49°36' W 000°11'4 7.9
2018-Aug-05 01:00N 49°40' W 000°11'4 7.3
2018-Aug-05 00:30N 49°44' W 000°10'4 7.3
2018-Aug-05 00:00N 49°47' W 000°09'4 7.7
2018-Aug-04 23:30N 49°51' W 000°09'4 8.4
2018-Aug-04 23:00N 49°55' W 000°09'5 9.7
2018-Aug-04 22:30N 50°00' W 000°09'5 9.7
2018-Aug-04 22:00N 50°05' W 000°09'5 9.6
2018-Aug-04 21:30N 50°10' W 000°09'16 9.5
2018-Aug-04 19:46N 50°26' W 000°06'310.0
2018-Aug-04 19:30N 50°27' W 000°02'  
Track history (hours):
 
Tides and Currents Weather Stations Pressure Air Temp Water Temp Dewpoint Dewpoint Depression Visibility Wind Speed Wind Dir Waves Ship Positions

OOCL Europe

Last reported at 2018-Aug-14 19:00 UTC. Time now 2018-Aug-14 19:28 UTC.
Position N 40°41' W 074°09'.

Length 323 m; draft 13.2 m.

Type: Cargo ship. MMSI: 477214700.

Date/timePositionNaut miles runAvg speedWind from/ knotsBaromVisibWave heightAir tempDewpointWater temp
2018-Aug-14 19:00N 40°41' W 074°09'0 0.0
2018-Aug-14 18:30N 40°41' W 074°09'0 0.0
2018-Aug-14 18:00N 40°41' W 074°09'0 0.0
2018-Aug-14 17:30N 40°41' W 074°09'0 0.0
2018-Aug-14 17:00N 40°41' W 074°09'0 0.0
2018-Aug-14 16:30N 40°41' W 074°09'0 0.0
2018-Aug-14 16:00N 40°41' W 074°09'0 0.0
2018-Aug-14 15:30N 40°41' W 074°09'0 0.0
2018-Aug-14 15:00N 40°41' W 074°09'0 0.0
2018-Aug-14 14:30N 40°41' W 074°09'0 0.0
2018-Aug-14 14:00N 40°41' W 074°09'0 0.0
2018-Aug-14 13:30N 40°41' W 074°09'0 0.0
2018-Aug-14 13:00N 40°41' W 074°09'0 0.0
2018-Aug-14 12:30N 40°41' W 074°09'0 0.0
2018-Aug-14 12:00N 40°41' W 074°09'0 0.0
2018-Aug-14 11:27N 40°41' W 074°09'0 0.0
2018-Aug-14 10:57N 40°41' W 074°09'0 0.0
2018-Aug-14 10:30N 40°41' W 074°09'0 0.0
2018-Aug-14 10:00N 40°41' W 074°09'0 0.0
2018-Aug-14 09:30N 40°41' W 074°09'0 0.0
2018-Aug-14 09:00N 40°41' W 074°09'0 0.0
2018-Aug-14 08:30N 40°41' W 074°09'0 0.0
2018-Aug-14 08:00N 40°41' W 074°09'0 0.0
2018-Aug-14 07:30N 40°41' W 074°09'0 0.0
2018-Aug-14 07:00N 40°41' W 074°09'0 0.0
2018-Aug-14 06:30N 40°41' W 074°09'0 0.0
2018-Aug-14 06:00N 40°41' W 074°09'0 0.0
2018-Aug-14 05:30N 40°41' W 074°09'0 0.0
2018-Aug-14 05:00N 40°41' W 074°09'0 0.0
2018-Aug-14 04:27N 40°41' W 074°09'0 0.0
2018-Aug-14 04:00N 40°41' W 074°09'0 0.0
2018-Aug-14 03:30N 40°41' W 074°09'0 0.0
2018-Aug-14 03:00N 40°41' W 074°09'0 0.0
2018-Aug-14 02:30N 40°41' W 074°09'0 0.0
2018-Aug-14 02:00N 40°41' W 074°09'0 0.0
2018-Aug-14 01:30N 40°41' W 074°09'0 0.0
2018-Aug-14 01:00N 40°41' W 074°09'0 0.0
2018-Aug-14 00:30N 40°41' W 074°09'0 0.0
2018-Aug-14 00:00N 40°41' W 074°09'0 0.0
2018-Aug-13 23:27N 40°41' W 074°09'0 0.1
2018-Aug-13 23:00N 40°41' W 074°09'0 0.0
2018-Aug-13 22:30N 40°41' W 074°09'0 0.0
2018-Aug-13 22:00N 40°41' W 074°09'0 0.0
2018-Aug-13 21:30N 40°41' W 074°09'0 0.0
2018-Aug-13 21:00N 40°41' W 074°09'0 0.0
2018-Aug-13 20:30N 40°41' W 074°09'0 0.0
2018-Aug-13 19:54N 40°41' W 074°09'0 0.0
2018-Aug-13 19:27N 40°41' W 074°09'0 0.0
2018-Aug-13 19:00N 40°41' W 074°09'0 0.0
2018-Aug-13 18:30N 40°41' W 074°09'0 0.0
2018-Aug-13 18:00N 40°41' W 074°09'0 0.0
2018-Aug-13 17:30N 40°41' W 074°09'0 0.0
2018-Aug-13 17:00N 40°41' W 074°09'0 0.0
2018-Aug-13 16:30N 40°41' W 074°09'0 0.0
2018-Aug-13 15:57N 40°41' W 074°09'0 0.0
2018-Aug-13 15:30N 40°41' W 074°09'0 0.0
2018-Aug-13 15:00N 40°41' W 074°09'0 0.0
2018-Aug-13 14:30N 40°41' W 074°09'0 0.0
2018-Aug-13 14:00N 40°41' W 074°09'0 0.0
2018-Aug-13 13:30N 40°41' W 074°09'0 0.0
2018-Aug-13 13:00N 40°41' W 074°09'0 0.0
2018-Aug-13 12:30N 40°41' W 074°09'0 0.0
2018-Aug-13 12:00N 40°41' W 074°09'0 0.0
2018-Aug-13 11:30N 40°41' W 074°09'0 0.2
2018-Aug-13 11:00N 40°41' W 074°08'1 2.1
2018-Aug-13 10:30N 40°40' W 074°09'2 3.2
2018-Aug-13 10:00N 40°39' W 074°07'3 5.8
2018-Aug-13 09:30N 40°38' W 074°03'4 7.3
2018-Aug-13 09:00N 40°34' W 074°02'5 9.0
2018-Aug-13 08:30N 40°31' W 073°58'5 9.0
2018-Aug-13 08:00N 40°29' W 073°53'39 9.9
2018-Aug-13 04:05N 40°07' W 073°11'612.7
2018-Aug-13 03:38N 40°07' W 073°03'2547699.7
2018-Aug-13 00:00N 40°00' W 017°36'2321193.4 090 / 431016.410.8 26.023.8
2018-Aug-12 12:00N 40°00' W 068°06'19316.1 090 / 231020.010.8 24.022.5
2018-Aug-12 00:00N 40°00' W 063°54'22118.4 040 / 251017.410.8 26.018.215.0
2018-Aug-11 12:00N 40°18' W 059°06'44918.7 090 / 371016.510.8 24.021.823.5
2018-Aug-10 12:00N 43°48' W 050°12'12020.0 080 / 271021.5 0.1 20.018.418.2
2018-Aug-10 06:00N 44°42' W 047°42'12020.0 040 / 231022.6 5.4 15.013.2
2018-Aug-10 00:00N 45°30' W 045°06'11919.8 040 / 151017.710.8 17.313.819.0
2018-Aug-09 18:00N 46°18' W 042°30'10517.5 140 / 41008.4 5.4 23.518.815.0
2018-Aug-09 12:00N 46°54' W 040°06'   220 / 231013.5 0.3 22.018.918.0
2018-Aug-06 17:21N 49°49' W 008°47'1219.2
2018-Aug-06 16:44N 49°49' W 008°29'619.4
2018-Aug-06 16:26N 49°48' W 008°20'1319.5
2018-Aug-06 15:45N 49°47' W 007°59'1219.4
2018-Aug-06 15:08N 49°46' W 007°41'319.2
2018-Aug-06 14:58N 49°46' W 007°36'1219.2
2018-Aug-06 14:19N 49°45' W 007°17'1019.1
2018-Aug-06 13:49N 49°44' W 007°02'719.2
2018-Aug-06 13:27N 49°43' W 006°51'819.3
2018-Aug-06 13:00N 49°43' W 006°38'918.4
2018-Aug-06 12:30N 49°43' W 006°23'1118.6
2018-Aug-06 11:54N 49°44' W 006°06'1019.0
2018-Aug-06 11:23N 49°45' W 005°51'1218.8
2018-Aug-06 10:45N 49°46' W 005°32'1118.4
2018-Aug-06 10:09N 49°48' W 005°16'714.9
2018-Aug-06 09:42N 49°49' W 005°05'314.6
2018-Aug-06 09:29N 49°49' W 005°00'714.7
2018-Aug-06 08:58N 49°50' W 004°49'714.8
2018-Aug-06 08:30N 49°51' W 004°38'714.9
2018-Aug-06 08:00N 49°52' W 004°27'815.1
2018-Aug-06 07:31N 49°53' W 004°15'815.2
2018-Aug-06 07:01N 49°54' W 004°04'815.3
2018-Aug-06 06:31N 49°55' W 003°52'815.4
2018-Aug-06 06:01N 49°56' W 003°40'815.2
2018-Aug-06 05:30N 49°57' W 003°28'714.9
2018-Aug-06 05:01N 49°58' W 003°17'714.6
2018-Aug-06 04:30N 49°59' W 003°06'714.2
2018-Aug-06 04:01N 49°59' W 002°55'713.9
2018-Aug-06 03:29N 50°01' W 002°44'613.4
2018-Aug-06 03:00N 50°03' W 002°34'713.0
2018-Aug-06 02:30N 50°05' W 002°24'712.7
2018-Aug-06 01:59N 50°05' W 002°14'612.5
2018-Aug-06 01:30N 50°05' W 002°05'612.4
2018-Aug-06 01:00N 50°06' W 001°55'612.3
2018-Aug-06 00:30N 50°05' W 001°46'713.4
2018-Aug-06 00:00N 50°01' W 001°37'713.8
2018-Aug-05 23:30N 49°58' W 001°27'814.1
2018-Aug-05 22:57N 49°54' W 001°17'1015.0
2018-Aug-05 22:19N 49°50' W 001°04'515.4
2018-Aug-05 22:01N 49°48' W 000°57'815.4
2018-Aug-05 21:30N 49°44' W 000°46'815.7
2018-Aug-05 21:01N 49°40' W 000°37'815.9
2018-Aug-05 20:31N 49°37' W 000°25'815.8
2018-Aug-05 20:01N 49°33' W 000°14'714.9
2018-Aug-05 19:30N 49°31' W 000°03'713.8
2018-Aug-05 19:00N 49°29' E 000°07'2 4.2
2018-Aug-05 18:30N 49°29' E 000°10'0 0.0
2018-Aug-05 17:59N 49°29' E 000°10'0 0.0
2018-Aug-05 17:29N 49°29' E 000°10'0 0.0
2018-Aug-05 16:59N 49°29' E 000°10'0 0.0
2018-Aug-05 16:29N 49°29' E 000°10'0 0.0
2018-Aug-05 15:59N 49°29' E 000°10'0 0.0
2018-Aug-05 15:29N 49°29' E 000°10'0 0.0
2018-Aug-05 14:59N 49°29' E 000°10'0 0.0
2018-Aug-05 14:29N 49°29' E 000°10'0 0.0
2018-Aug-05 13:29N 49°29' E 000°10'0 0.0
2018-Aug-05 12:59N 49°29' E 000°10'0 0.0
2018-Aug-05 12:29N 49°29' E 000°10'0 0.0
2018-Aug-05 11:59N 49°29' E 000°10'0 0.0
2018-Aug-05 11:29N 49°29' E 000°10'0 0.0
2018-Aug-05 10:59N 49°29' E 000°10'0 0.0
2018-Aug-05 10:29N 49°29' E 000°10'0 0.0
2018-Aug-05 09:59N 49°29' E 000°10'0 0.0
2018-Aug-05 09:29N 49°29' E 000°10'0 0.0
2018-Aug-05 08:59N 49°29' E 000°10'0 0.0
2018-Aug-05 08:29N 49°29' E 000°10'0 0.0
2018-Aug-05 07:59N 49°29' E 000°10'0 0.0
2018-Aug-05 07:29N 49°29' E 000°10'0 0.0
2018-Aug-05 06:59N 49°29' E 000°10'0 0.0
2018-Aug-05 06:29N 49°29' E 000°10'0 0.0
2018-Aug-05 05:59N 49°29' E 000°10'0 0.0
2018-Aug-05 05:29N 49°29' E 000°10'0 0.0
2018-Aug-05 04:59N 49°29' E 000°10'0 0.0
2018-Aug-05 04:29N 49°29' E 000°10'0 0.5
2018-Aug-05 04:00N 49°28' E 000°10'2 3.5
2018-Aug-05 03:30N 49°29' E 000°07'510.4
2018-Aug-05 03:00N 49°30' W 000°01'510.0
2018-Aug-05 02:30N 49°32' W 000°08'3 5.6
2018-Aug-05 02:00N 49°34' W 000°11'2 4.6
2018-Aug-05 01:30N 49°36' W 000°11'4 7.9
2018-Aug-05 01:00N 49°40' W 000°11'4 7.3
2018-Aug-05 00:30N 49°44' W 000°10'4 7.3
2018-Aug-05 00:00N 49°47' W 000°09'4 7.7
2018-Aug-04 23:30N 49°51' W 000°09'4 8.4
2018-Aug-04 23:00N 49°55' W 000°09'5 9.7
2018-Aug-04 22:30N 50°00' W 000°09'5 9.7
2018-Aug-04 22:00N 50°05' W 000°09'5 9.6
2018-Aug-04 21:30N 50°10' W 000°09'16 9.5
2018-Aug-04 19:46N 50°26' W 000°06'310.0
2018-Aug-04 19:30N 50°27' W 000°02'  

Dump ship's entire track history